Time;durP1;ratioP1;P1;durP2;ratioP2;P2;SDS_P1;SDS_P2;PMS_P1;PMS_P2;Temp;Humidity;BMP_temperature;BMP_pressure;BME280_temperature;BME280_humidity;BME280_pressure;Samples;Min_cycle;Max_cycle;Signal;HPM_P1;HPM_P2
2023/05/26 00:01:02;;;;;;;;;;;;;;;15.71;100.00;99297.45;109504;1254;74647;-67
2023/05/26 00:03:29;;;;;;;;;;;;;;;15.67;100.00;99297.12;109648;1251;66590;-67
2023/05/26 00:05:57;;;;;;;;;;;;;;;15.65;100.00;99298.65;109538;1251;71829;-66
2023/05/26 00:08:24;;;;;;;;;;;;;;;15.64;100.00;99298.58;109562;1251;59232;-67
2023/05/26 00:10:51;;;;;;;;;;;;;;;15.66;100.00;99294.48;109572;1253;59068;-67
2023/05/26 00:13:19;;;;;;;;;;;;;;;15.63;100.00;99298.03;109625;1252;73425;-67
2023/05/26 00:15:46;;;;;;;;;;;;;;;15.58;100.00;99296.83;109577;1251;67603;-67
2023/05/26 00:18:14;;;;;;;;;;;;;;;15.50;100.00;99293.88;109557;1251;72730;-67
2023/05/26 00:20:42;;;;;;;;;;;;;;;15.45;100.00;99295.38;109575;1251;58999;-67
2023/05/26 00:23:09;;;;;;;;;;;;;;;15.41;100.00;99296.17;109600;1254;59708;-67
2023/05/26 00:25:37;;;;;;;;;;;;;;;15.37;100.00;99300.47;109578;1254;73896;-67
2023/05/26 00:28:04;;;;;;;;;;;;;;;15.33;100.00;99298.81;109560;1251;67523;-67
2023/05/26 00:30:31;;;;;;;;;;;;;;;15.33;100.00;99300.13;109563;1251;71136;-66
2023/05/26 00:32:58;;;;;;;;;;;;;;;15.31;100.00;99295.55;109609;1254;60448;-67
2023/05/26 00:35:26;;;;;;;;;;;;;;;15.29;100.00;99298.89;109573;1258;58930;-67
2023/05/26 00:37:53;;;;;;;;;;;;;;;15.25;100.00;99291.77;109616;1251;74810;-67
2023/05/26 00:40:20;;;;;;;;;;;;;;;15.20;100.00;99293.48;109629;1251;66264;-67
2023/05/26 00:42:48;;;;;;;;;;;;;;;15.14;100.00;99292.48;109477;1254;72678;-67
2023/05/26 00:45:15;;;;;;;;;;;;;;;15.08;100.00;99292.67;109561;1254;60407;-67
2023/05/26 00:47:42;;;;;;;;;;;;;;;15.01;100.00;99287.98;109510;1251;59842;-66
2023/05/26 00:50:12;;;;;;;;;;;;;;;14.98;100.00;99286.97;109537;1251;73435;-67
2023/05/26 00:52:43;;;;;;;;;;;;;;;14.96;100.00;99286.02;109474;1251;67103;-67
2023/05/26 00:55:10;;;;;;;;;;;;;;;14.94;100.00;99287.70;109561;1251;73128;-67
2023/05/26 00:57:37;;;;;;;;;;;;;;;14.91;100.00;99287.09;109564;1251;60376;-67
2023/05/26 01:00:08;;;;;;;;;;;;;;;14.88;100.00;99287.00;109549;1254;58948;-66
2023/05/26 01:02:37;;;;;;;;;;;;;;;14.84;100.00;99288.18;109592;1254;73360;-67
2023/05/26 01:05:06;;;;;;;;;;;;;;;14.80;100.00;99286.48;109401;1254;67240;-67
2023/05/26 01:07:36;;;;;;;;;;;;;;;14.79;100.00;99286.39;109323;1254;72079;-67
2023/05/26 01:10:04;;;;;;;;;;;;;;;14.79;100.00;99287.13;109293;1253;177267;-67
2023/05/26 01:12:35;;;;;;;;;;;;;;;14.79;100.00;99292.93;109485;1251;59733;-67
2023/05/26 01:15:05;;;;;;;;;;;;;;;14.77;100.00;99295.09;109393;1251;75235;-67
2023/05/26 01:17:36;;;;;;;;;;;;;;;14.76;100.00;99294.20;109520;1253;71426;-67
2023/05/26 01:20:07;;;;;;;;;;;;;;;14.73;100.00;99296.72;109442;1253;72363;-67
2023/05/26 01:22:50;;;;;;;;;;;;;;;14.72;100.00;99296.84;109549;1254;60855;-66
2023/05/26 01:25:37;;;;;;;;;;;;;;;14.73;100.00;99297.34;109389;1253;59827;-66
2023/05/26 01:28:20;;;;;;;;;;;;;;;14.71;100.00;99294.48;109297;1254;75153;-66
2023/05/26 01:30:48;;;;;;;;;;;;;;;14.68;100.00;99291.92;109286;1253;66927;-66
2023/05/26 01:33:15;;;;;;;;;;;;;;;14.65;100.00;99294.75;109376;1254;72643;-66
2023/05/26 01:35:42;;;;;;;;;;;;;;;14.63;100.00;99299.65;109330;1254;60464;-66
2023/05/26 01:38:10;;;;;;;;;;;;;;;14.62;100.00;99305.13;109416;1254;59754;-67
2023/05/26 01:40:38;;;;;;;;;;;;;;;14.60;100.00;99308.61;109484;1251;75130;-68
2023/05/26 01:43:08;;;;;;;;;;;;;;;14.57;100.00;99309.87;109458;1251;67981;-67
2023/05/26 01:45:37;;;;;;;;;;;;;;;14.56;100.00;99307.36;109416;1251;71070;-67
2023/05/26 01:48:05;;;;;;;;;;;;;;;14.55;100.00;99308.59;109425;1253;62092;-67
2023/05/26 01:50:33;;;;;;;;;;;;;;;14.54;100.00;99311.92;109533;1254;59735;-67
2023/05/26 01:53:03;;;;;;;;;;;;;;;14.55;100.00;99312.86;109612;1251;74676;-67
2023/05/26 01:55:30;;;;;;;;;;;;;;;14.55;100.00;99308.09;109564;1251;66656;-67
2023/05/26 01:57:58;;;;;;;;;;;;;;;14.54;100.00;99310.89;109389;1253;72647;-67
2023/05/26 02:00:29;;;;;;;;;;;;;;;14.51;100.00;99310.38;109380;1252;60385;-67
2023/05/26 02:02:56;;;;;;;;;;;;;;;14.48;100.00;99308.36;109498;1254;58848;-67
2023/05/26 02:05:23;;;;;;;;;;;;;;;14.46;100.00;99310.23;109353;1251;73767;-67
2023/05/26 02:07:52;;;;;;;;;;;;;;;14.45;100.00;99310.63;109522;1251;67601;-67
2023/05/26 02:10:19;;;;;;;;;;;;;;;14.46;100.00;99311.89;109556;1251;72682;-67
2023/05/26 02:12:46;;;;;;;;;;;;;;;14.45;100.00;99306.41;109434;1251;60382;-67
2023/05/26 02:15:14;;;;;;;;;;;;;;;14.43;100.00;99305.36;109572;1253;59526;-67
2023/05/26 02:17:42;;;;;;;;;;;;;;;14.39;100.00;99306.74;109624;1254;73696;-67
2023/05/26 02:20:10;;;;;;;;;;;;;;;14.36;100.00;99305.70;109404;1251;67597;-67
2023/05/26 02:22:38;;;;;;;;;;;;;;;14.37;100.00;99310.48;109394;1253;72682;-67
2023/05/26 02:25:06;;;;;;;;;;;;;;;14.36;100.00;99309.73;109395;1254;61611;-66
2023/05/26 02:27:33;;;;;;;;;;;;;;;14.34;100.00;99308.00;109518;1252;59775;-67
2023/05/26 02:30:00;;;;;;;;;;;;;;;14.31;100.00;99309.59;109582;1251;73357;-67
2023/05/26 02:32:29;;;;;;;;;;;;;;;14.29;100.00;99308.10;109518;1251;67570;-67
2023/05/26 02:34:56;;;;;;;;;;;;;;;14.26;100.00;99308.95;109524;1254;71441;-67
2023/05/26 02:37:26;;;;;;;;;;;;;;;14.23;100.00;99309.93;109625;1251;61618;-67
2023/05/26 02:39:54;;;;;;;;;;;;;;;14.21;100.00;99311.55;109648;1251;59254;-67
2023/05/26 02:42:21;;;;;;;;;;;;;;;14.23;100.00;99319.52;109501;1254;74688;-67
2023/05/26 02:44:48;;;;;;;;;;;;;;;14.28;100.00;99322.02;109468;1251;66326;-66
2023/05/26 02:47:15;;;;;;;;;;;;;;;14.32;100.00;99322.68;109524;1251;71442;-67
2023/05/26 02:49:44;;;;;;;;;;;;;;;14.38;100.00;99321.03;109456;1251;60406;-66
2023/05/26 02:52:11;;;;;;;;;;;;;;;14.45;100.00;99318.71;109571;1253;58881;-66
2023/05/26 02:54:39;;;;;;;;;;;;;;;14.52;100.00;99317.89;109575;1251;73782;-66
2023/05/26 02:57:06;;;;;;;;;;;;;;;14.60;100.00;99316.27;109368;1253;66271;-66
2023/05/26 02:59:33;;;;;;;;;;;;;;;14.69;100.00;99317.09;109409;1252;72721;-68
2023/05/26 03:02:00;;;;;;;;;;;;;;;14.77;100.00;99314.77;109378;1254;61703;-66
2023/05/26 03:04:28;;;;;;;;;;;;;;;14.86;100.00;99314.34;109462;1251;59847;-66
2023/05/26 03:06:55;;;;;;;;;;;;;;;14.97;100.00;99316.48;109442;1251;74697;-66
2023/05/26 03:09:25;;;;;;;;;;;;;;;15.11;100.00;99316.35;109445;1251;66932;-66
2023/05/26 03:11:52;;;;;;;;;;;;;;;15.25;100.00;99316.30;109385;1253;72725;-66
2023/05/26 03:14:20;;;;;;;;;;;;;;;15.38;100.00;99315.20;109403;1254;60385;-66
2023/05/26 03:16:51;;;;;;;;;;;;;;;15.54;100.00;99315.08;109638;1251;59767;-66
2023/05/26 03:19:19;;;;;;;;;;;;;;;15.69;100.00;99312.84;109601;1254;75206;-68
2023/05/26 03:21:46;;;;;;;;;;;;;;;15.82;100.00;99310.86;109657;1251;67524;-66
2023/05/26 03:24:17;;;;;;;;;;;;;;;15.96;100.00;99312.40;109433;1251;74960;-67
2023/05/26 03:26:44;;;;;;;;;;;;;;;16.13;100.00;99314.98;109375;1251;61927;-67
2023/05/26 03:29:11;;;;;;;;;;;;;;;16.32;100.00;99315.88;109415;1253;58978;-67
2023/05/26 03:31:39;;;;;;;;;;;;;;;16.50;100.00;99316.58;109532;1251;73363;-66
2023/05/26 03:34:07;;;;;;;;;;;;;;;16.69;100.00;99314.66;109537;1251;66821;-67
2023/05/26 03:36:36;;;;;;;;;;;;;;;16.91;100.00;99314.23;109480;1253;72633;-67
2023/05/26 03:39:13;;;;;;;;;;;;;;;17.15;100.00;99315.78;109432;1251;60174;-66
2023/05/26 03:41:41;;;;;;;;;;;;;;;17.40;100.00;99312.77;109600;1253;58988;-67
2023/05/26 03:44:09;;;;;;;;;;;;;;;17.67;100.00;99316.92;109609;1252;74741;-68
2023/05/26 03:46:37;;;;;;;;;;;;;;;17.96;100.00;99312.89;109455;1251;66286;-68
2023/05/26 03:49:05;;;;;;;;;;;;;;;18.24;100.00;99315.15;109400;1252;72696;-68
2023/05/26 03:51:33;;;;;;;;;;;;;;;18.51;100.00;99312.55;109332;1254;59074;-68
2023/05/26 03:54:00;;;;;;;;;;;;;;;18.84;100.00;99312.31;109471;1252;60349;-69
2023/05/26 03:56:28;;;;;;;;;;;;;;;19.20;100.00;99309.61;109514;1251;76786;-67
2023/05/26 03:58:55;;;;;;;;;;;;;;;19.54;100.00;99306.20;109619;1253;67546;-68
2023/05/26 04:01:23;;;;;;;;;;;;;;;19.84;100.00;99305.59;109472;1253;72614;-67
2023/05/26 04:03:51;;;;;;;;;;;;;;;20.12;100.00;99304.30;109439;1251;60262;-66
2023/05/26 04:06:19;;;;;;;;;;;;;;;20.42;100.00;99305.42;109549;1251;58947;-66
2023/05/26 04:08:47;;;;;;;;;;;;;;;20.68;100.00;99303.55;109478;1254;74091;-65
2023/05/26 04:11:15;;;;;;;;;;;;;;;20.91;100.00;99300.80;109444;1252;66872;-66
2023/05/26 04:13:44;;;;;;;;;;;;;;;21.14;100.00;99303.38;109471;1251;72697;-70
2023/05/26 04:16:11;;;;;;;;;;;;;;;21.34;100.00;99305.87;109508;1252;60071;-70
2023/05/26 04:18:40;;;;;;;;;;;;;;;21.56;100.00;99306.40;109604;1251;60296;-70
2023/05/26 04:21:08;;;;;;;;;;;;;;;21.77;100.00;99307.45;109576;1251;75215;-72
2023/05/26 04:23:35;;;;;;;;;;;;;;;21.96;100.00;99312.71;109453;1251;67792;-68
2023/05/26 04:26:03;;;;;;;;;;;;;;;22.16;100.00;99313.17;109444;1254;72767;-69
2023/05/26 04:28:49;;;;;;;;;;;;;;;22.40;100.00;99303.93;109428;1254;60131;-70
2023/05/26 04:31:28;;;;;;;;;;;;;;;22.65;100.00;99306.70;109423;1251;59802;-68
2023/05/26 04:34:10;;;;;;;;;;;;;;;22.89;100.00;99306.73;109560;1251;72790;-70
2023/05/26 04:36:49;;;;;;;;;;;;;;;23.08;100.00;99306.02;109603;1251;67650;-68
2023/05/26 04:39:16;;;;;;;;;;;;;;;23.28;100.00;99304.73;109500;1252;72655;-69
2023/05/26 04:41:46;;;;;;;;;;;;;;;23.48;99.99;99306.12;109518;1253;60057;-67
2023/05/26 04:44:13;;;;;;;;;;;;;;;23.70;99.01;99314.46;109419;1255;59904;-70
2023/05/26 04:46:41;;;;;;;;;;;;;;;23.91;97.25;99312.08;109533;1252;76544;-67
2023/05/26 04:49:08;;;;;;;;;;;;;;;24.12;94.87;99310.89;109396;1253;65854;-67
2023/05/26 04:51:36;;;;;;;;;;;;;;;24.27;93.29;99306.16;109425;1251;72666;-68
2023/05/26 04:54:03;;;;;;;;;;;;;;;24.45;91.63;99303.52;109514;1251;58906;-68
2023/05/26 04:56:31;;;;;;;;;;;;;;;24.58;89.48;99304.30;109435;1251;58922;-68
2023/05/26 04:58:59;;;;;;;;;;;;;;;24.67;87.55;99308.04;109403;1253;74670;-71
2023/05/26 05:01:27;;;;;;;;;;;;;;;24.68;87.22;99310.22;109537;1253;66425;-70
2023/05/26 05:04:27;;;;;;;;;;;;;;;24.89;87.15;99309.89;109268;1251;73947;-69
2023/05/26 05:06:56;;;;;;;;;;;;;;;25.12;85.97;99305.23;109465;1252;62277;-71
2023/05/26 05:09:24;;;;;;;;;;;;;;;25.31;85.45;99306.58;109481;1252;58960;-69
2023/05/26 05:11:51;;;;;;;;;;;;;;;25.54;83.90;99306.41;109490;1253;74647;-69
2023/05/26 05:14:19;;;;;;;;;;;;;;;25.74;81.91;99307.34;109471;1251;67575;-69
2023/05/26 05:16:49;;;;;;;;;;;;;;;25.91;80.76;99306.68;109480;1251;72767;-69
2023/05/26 05:19:16;;;;;;;;;;;;;;;26.07;79.83;99307.20;109385;1251;58932;-75
2023/05/26 05:21:50;;;;;;;;;;;;;;;26.28;78.62;99315.48;109428;1252;59836;-75
2023/05/26 05:24:18;;;;;;;;;;;;;;;26.45;77.68;99312.59;109422;1251;74652;-75
2023/05/26 05:26:45;;;;;;;;;;;;;;;26.64;76.92;99311.55;109585;1253;67882;-68
2023/05/26 05:29:15;;;;;;;;;;;;;;;26.86;75.94;99317.98;109430;1251;72936;-73
2023/05/26 05:31:46;;;;;;;;;;;;;;;27.06;74.57;99313.67;109416;1251;59760;-73
2023/05/26 05:34:13;;;;;;;;;;;;;;;27.21;73.13;99319.15;109425;1252;59976;-69
2023/05/26 05:36:42;;;;;;;;;;;;;;;27.32;71.52;99319.20;109440;1253;73448;-74
2023/05/26 05:39:10;;;;;;;;;;;;;;;27.36;70.75;99322.84;109469;1251;67921;-73
2023/05/26 05:41:39;;;;;;;;;;;;;;;27.48;70.26;99325.41;109298;1252;72443;-71
2023/05/26 05:44:08;;;;;;;;;;;;;;;27.68;69.05;99317.98;109315;1254;61316;-73
2023/05/26 05:46:36;;;;;;;;;;;;;;;27.88;67.71;99317.33;109485;1253;60060;-73
2023/05/26 05:49:14;;;;;;;;;;;;;;;28.05;66.40;99317.91;109320;1253;75046;-72
2023/05/26 05:51:47;;;;;;;;;;;;;;;28.17;65.05;99313.27;109547;1253;67845;-73
2023/05/26 05:54:16;;;;;;;;;;;;;;;28.26;64.44;99314.98;109266;1252;73157;-68
2023/05/26 05:56:44;;;;;;;;;;;;;;;28.33;63.32;99313.54;109380;1253;59153;-68
2023/05/26 05:59:13;;;;;;;;;;;;;;;28.46;62.50;99317.93;109312;1254;59793;-69
2023/05/26 06:01:40;;;;;;;;;;;;;;;28.58;61.52;99319.77;109584;1253;74615;-68
2023/05/26 06:04:08;;;;;;;;;;;;;;;28.75;61.89;99316.69;109602;1253;66435;-67
2023/05/26 06:06:36;;;;;;;;;;;;;;;28.98;61.02;99314.58;109339;1256;72690;-68
2023/05/26 06:09:04;;;;;;;;;;;;;;;29.16;58.36;99315.54;109418;1253;58963;-73
2023/05/26 06:11:31;;;;;;;;;;;;;;;29.25;57.73;99313.02;109287;1254;58919;-73
2023/05/26 06:13:59;;;;;;;;;;;;;;;29.46;57.78;99311.35;109427;1253;74658;-71
2023/05/26 06:16:27;;;;;;;;;;;;;;;29.71;56.12;99311.83;109360;1252;67613;-72
2023/05/26 06:18:54;;;;;;;;;;;;;;;29.88;54.69;99310.32;109529;1252;71725;-71
2023/05/26 06:21:22;;;;;;;;;;;;;;;30.06;54.00;99306.42;109256;1254;60079;-73
2023/05/26 06:23:52;;;;;;;;;;;;;;;30.22;53.24;99306.36;109332;1256;58900;-70
2023/05/26 06:26:21;;;;;;;;;;;;;;;30.33;52.34;99305.98;109430;1251;74659;-73
2023/05/26 06:28:48;;;;;;;;;;;;;;;30.29;49.97;99303.98;109602;1252;67885;-72
2023/05/26 06:31:15;;;;;;;;;;;;;;;30.18;50.40;99303.73;109416;1252;71390;-72
2023/05/26 06:33:48;;;;;;;;;;;;;;;30.28;51.50;99303.79;109383;1253;60084;-74
2023/05/26 06:36:15;;;;;;;;;;;;;;;30.56;50.67;99307.08;109379;1251;58930;-71
2023/05/26 06:38:43;;;;;;;;;;;;;;;30.89;50.47;99306.85;109440;1251;75553;-69
2023/05/26 06:41:10;;;;;;;;;;;;;;;31.21;48.79;99304.30;109375;1251;67674;-71
2023/05/26 06:43:38;;;;;;;;;;;;;;;31.38;46.57;99307.59;109435;1253;71810;-71
2023/05/26 06:46:06;;;;;;;;;;;;;;;31.41;45.85;99305.87;109575;1253;58923;-72
2023/05/26 06:48:35;;;;;;;;;;;;;;;31.55;46.07;99308.86;109426;1251;59074;-74
2023/05/26 06:51:09;;;;;;;;;;;;;;;31.70;45.21;99307.23;109452;1251;73402;-72
2023/05/26 06:53:39;;;;;;;;;;;;;;;31.80;44.78;99306.88;109461;1251;66312;-69
2023/05/26 06:56:07;;;;;;;;;;;;;;;31.91;44.57;99309.94;109391;1252;72771;-71
2023/05/26 06:58:36;;;;;;;;;;;;;;;32.13;43.49;99310.16;109449;1253;58938;-70
2023/05/26 07:01:03;;;;;;;;;;;;;;;32.35;42.64;99307.33;109513;1253;59869;-72
2023/05/26 07:03:33;;;;;;;;;;;;;;;32.61;41.95;99307.05;109408;1251;73473;-64
2023/05/26 07:06:00;;;;;;;;;;;;;;;32.85;41.30;99308.73;109464;1251;67670;-62
2023/05/26 07:08:28;;;;;;;;;;;;;;;33.00;41.46;99308.44;109414;1254;72672;-67
2023/05/26 07:11:08;;;;;;;;;;;;;;;33.11;39.73;99308.58;109507;1254;60119;-68
2023/05/26 07:13:35;;;;;;;;;;;;;;;33.20;38.24;99310.79;109601;1251;59782;-68
2023/05/26 07:16:03;;;;;;;;;;;;;;;33.27;37.75;99314.38;109595;1251;75083;-69
2023/05/26 07:18:30;;;;;;;;;;;;;;;33.34;37.62;99314.80;109492;1253;66356;-69
2023/05/26 07:20:58;;;;;;;;;;;;;;;33.45;38.33;99318.95;109458;1251;71281;-69
2023/05/26 07:23:25;;;;;;;;;;;;;;;33.65;37.88;99318.42;109607;1251;60052;-69
2023/05/26 07:25:53;;;;;;;;;;;;;;;33.68;37.17;99322.67;109459;1256;58896;-69
2023/05/26 07:28:20;;;;;;;;;;;;;;;33.73;36.39;99319.66;109475;1254;74645;-67
2023/05/26 07:30:48;;;;;;;;;;;;;;;33.78;35.83;99319.42;109412;1253;66323;-68
2023/05/26 07:33:19;;;;;;;;;;;;;;;33.88;35.83;99319.72;109451;1251;73140;-67
2023/05/26 07:35:46;;;;;;;;;;;;;;;33.96;35.34;99318.34;109392;1254;60105;-68
2023/05/26 07:38:15;;;;;;;;;;;;;;;34.02;35.12;99315.67;109405;1252;59792;-68
2023/05/26 07:40:42;;;;;;;;;;;;;;;34.20;35.38;99316.30;109389;1252;74697;-67
2023/05/26 07:43:10;;;;;;;;;;;;;;;34.41;35.00;99316.81;109548;1253;66498;-67
2023/05/26 07:45:37;;;;;;;;;;;;;;;34.52;34.23;99317.42;109528;1251;71825;-68
2023/05/26 07:48:04;;;;;;;;;;;;;;;34.40;33.34;99318.90;109587;1253;60019;-69
2023/05/26 07:50:32;;;;;;;;;;;;;;;34.20;34.06;99317.66;109555;1251;59772;-69
2023/05/26 07:52:59;;;;;;;;;;;;;;;34.23;34.37;99318.09;109540;1251;74704;-67
2023/05/26 07:55:26;;;;;;;;;;;;;;;34.27;33.56;99317.58;109521;1253;66603;-69
2023/05/26 07:57:54;;;;;;;;;;;;;;;34.13;33.81;99319.41;109393;1251;71475;-68
2023/05/26 08:00:21;;;;;;;;;;;;;;;34.14;33.77;99324.67;109546;1253;60089;-68
2023/05/26 08:02:48;;;;;;;;;;;;;;;34.12;33.71;99320.70;109553;1253;58872;-68
2023/05/26 08:05:16;;;;;;;;;;;;;;;34.09;33.81;99318.65;109403;1253;73368;-66
2023/05/26 08:07:43;;;;;;;;;;;;;;;34.15;34.20;99320.06;109363;1251;68139;-67
2023/05/26 08:10:11;;;;;;;;;;;;;;;34.28;34.29;99319.65;109358;1253;71380;-69
2023/05/26 08:12:38;;;;;;;;;;;;;;;34.45;34.31;99316.19;109350;1253;59254;-67
2023/05/26 08:15:15;;;;;;;;;;;;;;;34.68;33.57;99317.73;109364;1252;58928;-67
2023/05/26 08:17:46;;;;;;;;;;;;;;;34.77;32.39;99312.27;109419;1251;73731;-68
2023/05/26 08:20:14;;;;;;;;;;;;;;;34.86;32.55;99319.01;109460;1251;67744;-68
2023/05/26 08:22:43;;;;;;;;;;;;;;;35.00;32.37;99316.03;109535;1251;71309;-68
2023/05/26 08:25:10;;;;;;;;;;;;;;;35.23;32.30;99316.52;109592;1251;60119;-69
2023/05/26 08:27:37;;;;;;;;;;;;;;;35.53;31.73;99313.16;109530;1253;59872;-69
2023/05/26 08:30:05;;;;;;;;;;;;;;;35.72;30.78;99308.27;109559;1251;74643;-68
2023/05/26 08:32:34;;;;;;;;;;;;;;;35.86;30.15;99304.96;109586;1253;68049;-68
2023/05/26 08:35:01;;;;;;;;;;;;;;;36.07;30.26;99307.17;109519;1253;72669;-68
2023/05/26 08:37:29;;;;;;;;;;;;;;;36.37;29.64;99305.27;109492;1252;60060;-69
2023/05/26 08:39:59;;;;;;;;;;;;;;;36.54;28.50;99302.94;109562;1252;59789;-69
2023/05/26 08:42:27;;;;;;;;;;;;;;;36.57;27.82;99300.67;109590;1251;74650;-69
2023/05/26 08:45:01;;;;;;;;;;;;;;;36.39;27.62;99298.79;109558;1253;66297;-70
2023/05/26 08:47:30;;;;;;;;;;;;;;;36.31;28.17;99295.50;109550;1253;70917;-70
2023/05/26 08:50:02;;;;;;;;;;;;;;;36.37;28.26;99289.86;109559;1252;58918;-68
2023/05/26 08:52:30;;;;;;;;;;;;;;;36.55;28.21;99287.64;109536;1253;59786;-69
2023/05/26 08:54:57;;;;;;;;;;;;;;;36.83;28.17;99281.52;109576;1251;73392;-68
2023/05/26 08:57:24;;;;;;;;;;;;;;;37.07;27.26;99281.56;109625;1251;68097;-68
2023/05/26 08:59:51;;;;;;;;;;;;;;;37.24;27.05;99281.04;109396;1253;72642;-68
2023/05/26 09:02:19;;;;;;;;;;;;;;;37.46;26.96;99278.21;109496;1253;58890;-68
2023/05/26 09:04:46;;;;;;;;;;;;;;;37.68;26.54;99279.02;109571;1252;58972;-68
2023/05/26 09:07:13;;;;;;;;;;;;;;;37.80;25.80;99273.55;109501;1252;74628;-68
2023/05/26 09:09:44;;;;;;;;;;;;;;;38.00;25.42;99275.70;109485;1253;67647;-67
2023/05/26 09:12:11;;;;;;;;;;;;;;;38.19;24.71;99270.73;109498;1252;71377;-66
2023/05/26 09:14:39;;;;;;;;;;;;;;;38.11;24.47;99266.58;109484;1253;60144;-66
2023/05/26 09:17:08;;;;;;;;;;;;;;;38.10;24.63;99272.94;109573;1252;59755;-65
2023/05/26 09:19:35;;;;;;;;;;;;;;;38.31;24.80;99269.06;109491;1253;75033;-68
2023/05/26 09:22:06;;;;;;;;;;;;;;;38.56;24.00;99264.14;109511;1252;66427;-64
2023/05/26 09:24:47;;;;;;;;;;;;;;;38.64;23.53;99259.27;109539;1252;71182;-67
2023/05/26 09:27:18;;;;;;;;;;;;;;;38.67;23.38;99262.27;109515;1253;60080;-65
2023/05/26 09:29:52;;;;;;;;;;;;;;;38.77;23.53;99259.44;109526;1252;58941;-67
2023/05/26 09:32:23;;;;;;;;;;;;;;;38.99;23.19;99256.92;109481;1253;74590;-66
2023/05/26 09:34:51;;;;;;;;;;;;;;;39.02;22.92;99252.85;109578;1252;67633;-69
2023/05/26 09:37:24;;;;;;;;;;;;;;;38.86;22.73;99249.89;109533;1253;71922;-67
2023/05/26 09:39:52;;;;;;;;;;;;;;;38.12;23.26;99248.48;109420;1254;62934;-68
2023/05/26 09:42:19;;;;;;;;;;;;;;;37.29;24.32;99249.32;109496;1253;59904;-67
2023/05/26 09:44:51;;;;;;;;;;;;;;;37.33;24.82;99249.86;109550;1253;74579;-66
2023/05/26 09:47:20;;;;;;;;;;;;;;;37.83;24.16;99246.29;109581;1252;68299;-68
2023/05/26 09:49:47;;;;;;;;;;;;;;;37.59;23.06;99240.60;109517;1252;73622;-69
2023/05/26 09:52:14;;;;;;;;;;;;;;;37.05;24.04;99241.70;109478;1253;58936;-67
2023/05/26 09:54:42;;;;;;;;;;;;;;;36.42;24.86;99243.79;109446;1253;59800;-67
2023/05/26 09:57:12;;;;;;;;;;;;;;;36.04;25.23;99241.82;109448;1253;74650;-67
2023/05/26 09:59:42;;;;;;;;;;;;;;;36.43;25.38;99237.10;109466;1252;68172;-69
2023/05/26 10:02:22;;;;;;;;;;;;;;;37.09;25.03;99233.92;109445;1252;72053;-68
2023/05/26 10:04:49;;;;;;;;;;;;;;;37.48;24.39;99236.27;109384;1253;60110;-68
2023/05/26 10:07:20;;;;;;;;;;;;;;;37.96;23.88;99231.48;109434;1253;59026;-69
2023/05/26 10:09:51;;;;;;;;;;;;;;;38.29;23.46;99230.11;109482;1253;74689;-67
2023/05/26 10:12:26;;;;;;;;;;;;;;;38.42;23.05;99230.22;109443;1253;67631;-69
2023/05/26 10:14:53;;;;;;;;;;;;;;;38.59;23.02;99230.40;109470;1253;72746;-68
2023/05/26 10:17:25;;;;;;;;;;;;;;;38.10;23.28;99229.65;109537;1252;58960;-70
2023/05/26 10:19:53;;;;;;;;;;;;;;;38.14;23.42;99229.67;109489;1252;59792;-67
2023/05/26 10:22:31;;;;;;;;;;;;;;;37.63;22.94;99231.02;109379;1253;74643;-68
2023/05/26 10:25:00;;;;;;;;;;;;;;;36.25;23.80;99233.95;109577;1254;66181;-69
2023/05/26 10:27:28;;;;;;;;;;;;;;;35.02;24.81;99237.16;109373;1254;73148;-69
2023/05/26 10:30:00;;;;;;;;;;;;;;;34.04;26.16;99232.35;109490;1253;58937;-65
2023/05/26 10:32:46;;;;;;;;;;;;;;;33.22;27.55;99229.01;109505;1253;60069;-68
2023/05/26 10:35:21;;;;;;;;;;;;;;;32.45;28.71;99227.11;109499;1253;74869;-66
2023/05/26 10:37:49;;;;;;;;;;;;;;;31.81;29.61;99226.88;109527;1253;67708;-66
2023/05/26 10:40:35;;;;;;;;;;;;;;;31.25;30.61;99227.27;109486;1253;71341;-61
2023/05/26 10:43:12;;;;;;;;;;;;;;;30.75;31.14;99227.52;109545;1252;60049;-66
2023/05/26 10:45:55;;;;;;;;;;;;;;;30.36;31.91;99225.86;109530;1253;60692;-65
2023/05/26 10:48:54;;;;;;;;;;;;;;;30.21;32.62;99229.57;109552;1251;74646;-67
2023/05/26 10:51:25;;;;;;;;;;;;;;;30.12;32.80;99231.55;109468;1253;66428;-66
2023/05/26 10:53:56;;;;;;;;;;;;;;;30.00;33.02;99227.73;109457;1253;74807;-63
2023/05/26 10:56:25;;;;;;;;;;;;;;;30.00;33.49;99223.50;109365;1253;60117;-64
2023/05/26 10:58:55;;;;;;;;;;;;;;;30.09;33.67;99217.51;109416;1253;58939;-62
2023/05/26 11:01:26;;;;;;;;;;;;;;;30.15;33.22;99210.98;109519;1251;77689;-67
2023/05/26 11:03:57;;;;;;;;;;;;;;;30.06;32.59;99212.42;109574;1251;67685;-64
2023/05/26 11:06:32;;;;;;;;;;;;;;;29.89;33.04;99215.73;109564;1251;72735;-63
2023/05/26 11:09:00;;;;;;;;;;;;;;;29.75;33.23;99211.65;109543;1253;60073;-68
2023/05/26 11:11:28;;;;;;;;;;;;;;;29.60;33.58;99210.20;109575;1251;59054;-65
2023/05/26 11:14:12;;;;;;;;;;;;;;;29.50;34.38;99206.73;109552;1251;74743;-65
2023/05/26 11:16:42;;;;;;;;;;;;;;;29.32;34.13;99204.00;109591;1254;66567;-65
2023/05/26 11:19:10;;;;;;;;;;;;;;;29.07;34.34;99201.80;109527;1253;72690;-66
2023/05/26 11:21:38;;;;;;;;;;;;;;;28.86;34.59;99200.04;109526;1254;60053;-67
2023/05/26 11:24:05;;;;;;;;;;;;;;;28.71;35.12;99198.67;109421;1251;59842;-66
2023/05/26 11:26:33;;;;;;;;;;;;;;;28.54;35.25;99210.75;109517;1252;74648;-66
2023/05/26 11:29:04;;;;;;;;;;;;;;;28.40;36.29;99205.17;109680;1251;65753;-68
2023/05/26 11:31:31;;;;;;;;;;;;;;;28.26;38.35;99212.79;109530;1251;71936;-63
2023/05/26 11:33:58;;;;;;;;;;;;;;;28.10;39.95;99213.96;109567;1254;59001;-65
2023/05/26 11:36:26;;;;;;;;;;;;;;;27.90;40.95;99221.15;109562;1253;59604;-66
2023/05/26 11:38:57;;;;;;;;;;;;;;;27.74;42.17;99217.39;109574;1251;74952;-63
2023/05/26 11:41:25;;;;;;;;;;;;;;;27.60;42.93;99215.37;109564;1253;66833;-64
2023/05/26 11:43:53;;;;;;;;;;;;;;;27.50;43.98;99218.27;109546;1254;72266;-64
2023/05/26 11:46:21;;;;;;;;;;;;;;;27.43;45.28;99211.59;109548;1252;60647;-68
2023/05/26 11:48:49;;;;;;;;;;;;;;;27.35;45.67;99208.46;109579;1251;59806;-68
2023/05/26 11:51:20;;;;;;;;;;;;;;;27.24;45.87;99213.69;109516;1253;74637;-69
2023/05/26 11:53:51;;;;;;;;;;;;;;;27.11;45.86;99214.55;109574;1252;66953;-65
2023/05/26 11:56:18;;;;;;;;;;;;;;;26.93;45.31;99212.66;109590;1253;71422;-68
2023/05/26 11:58:46;;;;;;;;;;;;;;;26.77;45.25;99212.35;109553;1253;60132;-67
2023/05/26 12:01:13;;;;;;;;;;;;;;;26.65;44.98;99208.20;109625;1252;59929;-66
2023/05/26 12:03:41;;;;;;;;;;;;;;;26.56;44.45;99200.89;109559;1251;75083;-65
2023/05/26 12:06:21;;;;;;;;;;;;;;;26.47;44.48;99203.88;109470;1254;67783;-66
2023/05/26 12:09:00;;;;;;;;;;;;;;;26.44;45.20;99203.24;109543;1251;71401;-67
2023/05/26 12:11:42;;;;;;;;;;;;;;;26.43;46.20;99197.57;109573;1251;59003;-68
2023/05/26 12:14:10;;;;;;;;;;;;;;;26.42;46.36;99197.52;109468;1252;59151;-65
2023/05/26 12:16:39;;;;;;;;;;;;;;;26.41;47.40;99193.65;109452;1253;74673;-66
2023/05/26 12:19:08;;;;;;;;;;;;;;;26.44;48.15;99184.05;109417;1252;66745;-68
2023/05/26 12:21:45;;;;;;;;;;;;;;;26.46;48.84;99182.13;109552;1251;73192;-66
2023/05/26 12:24:13;;;;;;;;;;;;;;;26.46;49.03;99181.96;109439;1253;60594;-67
2023/05/26 12:26:40;;;;;;;;;;;;;;;26.41;49.09;99177.34;109519;1254;59832;-65
2023/05/26 12:29:14;;;;;;;;;;;;;;;26.35;49.25;99175.18;109511;1252;75512;-66
2023/05/26 12:31:42;;;;;;;;;;;;;;;26.33;50.32;99169.54;109548;1254;66310;-66
2023/05/26 12:34:10;;;;;;;;;;;;;;;26.34;51.16;99168.32;109479;1252;72737;-66
2023/05/26 12:36:37;;;;;;;;;;;;;;;26.38;51.79;99164.77;109516;1252;58940;-70
2023/05/26 12:39:05;;;;;;;;;;;;;;;26.45;52.70;99161.94;109487;1253;59848;-65
2023/05/26 12:41:33;;;;;;;;;;;;;;;26.57;53.17;99162.80;109523;1253;74776;-67
2023/05/26 12:44:00;;;;;;;;;;;;;;;26.72;54.12;99157.75;109611;1251;67131;-70